createdAt,value
2019-06-27T00:00:07.126Z,25.70
2019-06-27T00:02:37.037Z,25.60
2019-06-27T00:05:07.565Z,25.60
2019-06-27T00:07:37.485Z,25.60
2019-06-27T00:10:08.568Z,25.60
2019-06-27T00:12:38.576Z,25.50
2019-06-27T00:15:08.798Z,25.50
2019-06-27T00:17:38.800Z,25.50
2019-06-27T00:20:10.003Z,25.40
2019-06-27T00:22:41.264Z,25.40
2019-06-27T00:25:11.451Z,25.30
2019-06-27T00:27:41.362Z,25.30
2019-06-27T00:30:12.580Z,25.20
2019-06-27T00:32:42.615Z,25.20
2019-06-27T00:35:13.192Z,25.20
2019-06-27T00:37:44.305Z,25.20
2019-06-27T00:40:15.104Z,25.20
2019-06-27T00:42:45.168Z,25.20
2019-06-27T00:45:16.010Z,25.20
2019-06-27T00:47:46.075Z,25.20
2019-06-27T00:50:16.794Z,25.10
2019-06-27T00:52:46.780Z,25.10
2019-06-27T00:55:16.830Z,25.10
2019-06-27T00:57:46.953Z,25.00
2019-06-27T01:00:17.473Z,25.00
2019-06-27T01:02:48.465Z,25.00
2019-06-27T01:05:18.503Z,24.90
2019-06-27T01:07:48.562Z,24.90
2019-06-27T01:10:20.038Z,24.90
2019-06-27T01:12:50.021Z,24.80
2019-06-27T01:15:20.273Z,24.80
2019-06-27T01:17:50.282Z,24.80
2019-06-27T01:20:20.431Z,24.80
2019-06-27T01:22:50.515Z,24.80
2019-06-27T01:25:20.750Z,24.80
2019-06-27T01:27:51.505Z,24.80
2019-06-27T01:30:22.162Z,24.70
2019-06-27T01:32:52.320Z,24.70
2019-06-27T01:35:22.528Z,24.70
2019-06-27T01:37:52.498Z,24.70
2019-06-27T01:40:22.697Z,24.70
2019-06-27T01:42:52.839Z,24.60
2019-06-27T01:45:28.642Z,24.50
2019-06-27T01:47:58.656Z,24.40
2019-06-27T01:50:28.723Z,24.40
2019-06-27T01:52:58.739Z,24.40
2019-06-27T01:55:28.744Z,24.30
2019-06-27T01:57:58.726Z,24.30
2019-06-27T02:00:29.153Z,24.30
2019-06-27T02:02:59.303Z,24.30
2019-06-27T02:05:29.352Z,24.30
2019-06-27T02:07:59.492Z,24.30
2019-06-27T02:10:30.166Z,24.30
2019-06-27T02:13:00.224Z,24.40
2019-06-27T02:15:30.359Z,24.40
2019-06-27T02:18:00.421Z,24.30
2019-06-27T02:20:30.602Z,24.20
2019-06-27T02:23:00.648Z,23.90
2019-06-27T02:25:31.079Z,23.70
2019-06-27T02:28:04.268Z,23.60
2019-06-27T02:30:44.400Z,23.60
2019-06-27T02:33:14.676Z,23.50
2019-06-27T02:35:45.514Z,23.60
2019-06-27T02:38:16.316Z,23.40
2019-06-27T02:40:46.641Z,23.20
2019-06-27T02:43:16.639Z,23.20
2019-06-27T02:45:46.710Z,23.30
2019-06-27T02:48:16.730Z,22.80
2019-06-27T02:50:46.727Z,22.70
2019-06-27T02:53:17.583Z,22.80
2019-06-27T02:55:47.583Z,22.80
2019-06-27T02:58:30.169Z,22.80
2019-06-27T03:00:49.372Z,23.00
2019-06-27T03:03:19.402Z,23.00
2019-06-27T03:05:49.479Z,22.90
2019-06-27T03:08:19.638Z,22.40
2019-06-27T03:10:51.460Z,22.30
2019-06-27T03:13:21.546Z,22.30
2019-06-27T03:15:51.568Z,22.40
2019-06-27T03:18:21.683Z,22.60
2019-06-27T03:20:51.662Z,22.80
2019-06-27T03:23:21.674Z,22.70
2019-06-27T03:25:51.671Z,22.70
2019-06-27T03:28:21.594Z,22.80
2019-06-27T03:30:51.704Z,22.90
2019-06-27T03:33:21.698Z,23.10
2019-06-27T03:35:52.868Z,23.10
2019-06-27T03:38:22.885Z,23.10
2019-06-27T03:40:52.936Z,23.10
2019-06-27T03:43:22.986Z,23.30
2019-06-27T03:45:53.053Z,23.30
2019-06-27T03:48:23.143Z,23.30
2019-06-27T03:50:56.033Z,23.30
2019-06-27T03:53:24.721Z,23.80
2019-06-27T03:55:54.705Z,24.00
2019-06-27T03:58:24.849Z,23.90
2019-06-27T04:00:56.432Z,23.80
2019-06-27T04:03:26.849Z,23.70
2019-06-27T04:05:56.834Z,23.40
2019-06-27T04:08:26.951Z,23.30
2019-06-27T04:10:57.124Z,23.50
2019-06-27T04:13:27.202Z,23.90
2019-06-27T04:15:57.231Z,24.00
2019-06-27T04:18:27.122Z,24.00
2019-06-27T04:20:57.205Z,23.90
2019-06-27T04:23:27.206Z,23.80
2019-06-27T04:25:58.240Z,23.90
2019-06-27T04:28:28.239Z,23.90
2019-06-27T04:30:58.330Z,23.90
2019-06-27T04:33:28.338Z,23.90
2019-06-27T04:35:58.367Z,24.00
2019-06-27T04:38:28.344Z,24.10
2019-06-27T04:40:58.256Z,24.10
2019-06-27T04:43:28.672Z,24.10
2019-06-27T04:45:58.614Z,24.30
2019-06-27T04:48:28.518Z,24.20
2019-06-27T04:50:59.378Z,24.30
2019-06-27T04:53:29.303Z,24.20
2019-06-27T04:55:59.297Z,24.00
2019-06-27T04:58:29.304Z,24.20
2019-06-27T05:00:59.383Z,24.50
2019-06-27T05:03:29.391Z,24.60
2019-06-27T05:05:59.296Z,24.80
2019-06-27T05:08:29.437Z,24.80
2019-06-27T05:10:59.352Z,24.90
2019-06-27T05:13:29.340Z,24.90
2019-06-27T05:16:00.205Z,24.90
2019-06-27T05:18:30.117Z,24.80
2019-06-27T05:21:00.027Z,24.90
2019-06-27T05:23:29.950Z,25.10
2019-06-27T05:25:59.872Z,25.00
2019-06-27T05:28:29.844Z,24.90
2019-06-27T05:30:59.876Z,24.80
2019-06-27T05:33:29.806Z,25.00
2019-06-27T05:36:02.411Z,25.30
2019-06-27T05:38:31.520Z,25.50
2019-06-27T05:41:01.480Z,25.30
2019-06-27T05:43:31.343Z,25.30
2019-06-27T05:46:01.258Z,25.50
2019-06-27T05:48:31.232Z,25.60
2019-06-27T05:51:01.120Z,25.80
2019-06-27T05:53:31.091Z,26.00
2019-06-27T05:56:01.101Z,26.00
2019-06-27T05:58:31.010Z,26.00
2019-06-27T06:01:01.073Z,26.20
2019-06-27T06:03:31.173Z,26.40
2019-06-27T06:06:01.579Z,26.40
2019-06-27T06:08:31.483Z,26.70
2019-06-27T06:11:01.467Z,26.80
2019-06-27T06:13:31.362Z,26.70
2019-06-27T06:16:01.597Z,27.00
2019-06-27T06:18:31.648Z,26.90
2019-06-27T06:21:01.637Z,26.90
2019-06-27T06:23:31.528Z,27.40
2019-06-27T06:26:01.538Z,27.40
2019-06-27T06:28:31.652Z,27.40
2019-06-27T06:31:01.796Z,27.60
2019-06-27T06:33:31.744Z,27.80
2019-06-27T06:36:01.708Z,27.80
2019-06-27T06:38:31.651Z,27.70
2019-06-27T06:41:01.792Z,27.70
2019-06-27T06:43:31.686Z,27.80
2019-06-27T06:46:01.643Z,27.90
2019-06-27T06:48:31.571Z,27.90
2019-06-27T06:51:01.459Z,28.00
2019-06-27T06:53:31.426Z,28.20
2019-06-27T06:56:02.501Z,28.30
2019-06-27T06:58:32.417Z,28.40
2019-06-27T07:01:02.773Z,28.10
2019-06-27T07:03:32.803Z,28.10
2019-06-27T07:06:02.768Z,28.20
2019-06-27T07:08:32.755Z,28.10
2019-06-27T07:11:02.642Z,28.20
2019-06-27T07:13:32.534Z,28.20
2019-06-27T07:16:02.516Z,28.30
2019-06-27T07:18:32.412Z,28.40
2019-06-27T07:21:02.391Z,28.60
2019-06-27T07:23:32.272Z,28.80
2019-06-27T07:26:02.286Z,28.90
2019-06-27T07:28:32.274Z,28.90
2019-06-27T07:31:16.766Z,29.00
2019-06-27T07:33:33.994Z,28.70
2019-06-27T07:36:04.041Z,28.90
2019-06-27T07:38:34.047Z,29.00
2019-06-27T07:41:04.225Z,29.00
2019-06-27T07:43:34.132Z,29.00
2019-06-27T07:46:05.128Z,29.10
2019-06-27T07:48:35.066Z,29.20
2019-06-27T07:51:05.113Z,29.30
2019-06-27T07:53:35.050Z,29.40
2019-06-27T07:56:05.015Z,29.60
2019-06-27T07:58:35.009Z,29.70
2019-06-27T08:01:05.167Z,29.60
2019-06-27T08:03:36.300Z,29.20
2019-06-27T08:06:06.450Z,29.40
2019-06-27T08:08:36.445Z,29.60
2019-06-27T08:11:06.410Z,29.70
2019-06-27T08:13:36.361Z,30.00
2019-06-27T08:16:06.442Z,30.10
2019-06-27T08:18:36.419Z,29.80
2019-06-27T08:21:07.474Z,29.70
2019-06-27T08:23:41.929Z,29.80
2019-06-27T08:26:09.191Z,30.00
2019-06-27T08:28:39.203Z,30.00
2019-06-27T08:31:09.469Z,30.00
2019-06-27T08:33:39.382Z,30.30
2019-06-27T08:36:09.507Z,30.50
2019-06-27T08:38:39.526Z,30.40
2019-06-27T08:41:09.691Z,30.50
2019-06-27T08:43:39.609Z,30.60
2019-06-27T08:46:09.648Z,30.80
2019-06-27T08:48:39.621Z,30.90
2019-06-27T08:51:09.690Z,30.70
2019-06-27T08:53:40.543Z,30.70
2019-06-27T08:56:10.435Z,30.80
2019-06-27T08:58:40.482Z,31.00
2019-06-27T09:01:10.405Z,30.90
2019-06-27T09:03:40.559Z,30.80
2019-06-27T09:06:10.592Z,30.70
2019-06-27T09:08:40.570Z,31.00
2019-06-27T09:11:10.657Z,30.90
2019-06-27T09:13:40.606Z,31.20
2019-06-27T09:16:10.588Z,31.00
2019-06-27T09:18:41.041Z,31.00
2019-06-27T09:21:11.221Z,31.30
2019-06-27T09:23:41.353Z,31.50
2019-06-27T09:26:11.292Z,31.60
2019-06-27T09:28:41.284Z,31.80
2019-06-27T09:31:11.563Z,31.60
2019-06-27T09:33:41.641Z,31.70
2019-06-27T09:36:11.648Z,31.90
2019-06-27T09:38:41.752Z,32.10
2019-06-27T09:41:11.791Z,32.10
2019-06-27T09:43:41.866Z,32.20
2019-06-27T09:46:11.911Z,31.90
2019-06-27T09:48:41.838Z,32.10
2019-06-27T09:51:11.929Z,32.00
2019-06-27T09:53:42.015Z,31.80
2019-06-27T09:56:12.113Z,31.90
2019-06-27T09:58:42.144Z,31.90
2019-06-27T10:01:13.999Z,31.90
2019-06-27T10:03:43.968Z,31.80
2019-06-27T10:06:13.990Z,32.10
2019-06-27T10:08:44.484Z,32.00
2019-06-27T10:11:14.649Z,32.30
2019-06-27T10:13:44.681Z,32.40
2019-06-27T10:16:14.675Z,32.50
2019-06-27T10:18:44.732Z,32.20
2019-06-27T10:21:17.612Z,31.60
2019-06-27T10:23:47.537Z,31.90
2019-06-27T10:26:17.570Z,32.00
2019-06-27T10:28:47.576Z,32.30
2019-06-27T10:31:17.641Z,31.90
2019-06-27T10:33:48.778Z,31.80
2019-06-27T10:36:18.808Z,31.90
2019-06-27T10:38:48.757Z,32.00
2019-06-27T10:41:18.669Z,32.10
2019-06-27T10:43:48.573Z,32.10
2019-06-27T10:46:18.502Z,31.90
2019-06-27T10:48:48.422Z,31.90
2019-06-27T10:51:21.625Z,32.20
2019-06-27T10:53:51.556Z,32.20
2019-06-27T10:56:21.531Z,32.10
2019-06-27T10:58:51.443Z,31.50
2019-06-27T11:01:21.413Z,31.70
2019-06-27T11:03:51.385Z,32.10
2019-06-27T11:06:21.396Z,32.40
2019-06-27T11:08:51.302Z,32.50
2019-06-27T11:11:21.353Z,32.70
2019-06-27T11:13:58.753Z,33.00
2019-06-27T11:16:24.046Z,33.60
2019-06-27T11:18:53.926Z,34.10
2019-06-27T11:21:23.825Z,34.00
2019-06-27T11:23:53.839Z,34.40
2019-06-27T11:26:23.744Z,34.30
2019-06-27T11:28:53.829Z,34.70
2019-06-27T11:31:23.794Z,34.50
2019-06-27T11:33:53.776Z,34.20
2019-06-27T11:36:23.740Z,34.20
2019-06-27T11:38:54.100Z,34.70
2019-06-27T11:41:24.382Z,35.20
2019-06-27T11:43:54.376Z,35.30
2019-06-27T11:46:24.287Z,35.60
2019-06-27T11:48:54.269Z,35.30
2019-06-27T11:51:24.163Z,34.90
2019-06-27T11:53:54.163Z,34.60
2019-06-27T11:56:24.186Z,34.80
2019-06-27T11:58:55.035Z,34.80
2019-06-27T12:01:26.065Z,34.60
2019-06-27T12:03:56.065Z,34.60
2019-06-27T12:06:26.142Z,34.20
2019-06-27T12:08:56.100Z,34.20
2019-06-27T12:11:26.255Z,34.80
2019-06-27T12:13:56.173Z,34.70
2019-06-27T12:16:26.162Z,34.70
2019-06-27T12:18:56.205Z,35.20
2019-06-27T12:21:26.923Z,35.30
2019-06-27T12:23:56.966Z,35.90
2019-06-27T12:26:27.020Z,36.10
2019-06-27T12:28:57.053Z,35.00
2019-06-27T12:31:27.159Z,34.50
2019-06-27T12:34:06.952Z,35.20
2019-06-27T12:36:28.793Z,36.00
2019-06-27T12:38:58.856Z,36.50
2019-06-27T12:41:28.836Z,36.20
2019-06-27T12:43:58.910Z,35.00
2019-06-27T12:46:29.059Z,34.10
2019-06-27T12:48:59.051Z,33.80
2019-06-27T12:51:29.046Z,33.40
2019-06-27T12:53:59.009Z,33.60
2019-06-27T12:56:28.974Z,33.70
2019-06-27T12:58:58.997Z,34.00
2019-06-27T13:01:29.124Z,34.00
2019-06-27T13:03:59.331Z,34.20
2019-06-27T13:06:29.440Z,34.10
2019-06-27T13:08:59.500Z,34.30
2019-06-27T13:11:29.442Z,33.80
2019-06-27T13:13:59.875Z,34.50
2019-06-27T13:16:31.166Z,35.10
2019-06-27T13:19:01.339Z,35.20
2019-06-27T13:21:31.868Z,34.70
2019-06-27T13:24:01.858Z,34.90
2019-06-27T13:26:31.898Z,34.50
2019-06-27T13:29:01.821Z,35.00
2019-06-27T13:31:32.539Z,35.10
2019-06-27T13:34:02.648Z,34.60
2019-06-27T13:36:33.485Z,34.60
2019-06-27T13:39:06.354Z,34.80
2019-06-27T13:41:36.789Z,34.50
2019-06-27T13:44:06.964Z,34.20
2019-06-27T13:46:37.051Z,33.80
2019-06-27T13:49:07.014Z,33.40
2019-06-27T13:51:36.997Z,32.70
2019-06-27T13:54:06.999Z,32.30
2019-06-27T13:56:36.955Z,32.30
2019-06-27T13:59:06.908Z,32.20
2019-06-27T14:01:36.921Z,32.10
2019-06-27T14:04:06.795Z,31.70
2019-06-27T14:06:41.004Z,31.70
2019-06-27T14:09:21.960Z,31.80
2019-06-27T14:11:40.256Z,31.80
2019-06-27T14:14:11.524Z,31.70
2019-06-27T14:16:42.104Z,31.60
2019-06-27T14:19:12.239Z,31.50
2019-06-27T14:21:43.367Z,31.70
2019-06-27T14:24:13.269Z,31.70
2019-06-27T14:26:43.777Z,31.70
2019-06-27T14:29:13.685Z,31.30
2019-06-27T14:31:43.597Z,31.10
2019-06-27T14:34:13.709Z,31.40
2019-06-27T14:36:43.705Z,31.40
2019-06-27T14:39:14.282Z,31.30
2019-06-27T14:41:44.213Z,31.20
2019-06-27T14:44:14.136Z,31.20
2019-06-27T14:46:44.827Z,31.30
2019-06-27T14:49:14.961Z,31.50
2019-06-27T14:51:44.986Z,31.70
2019-06-27T14:54:14.963Z,31.80
2019-06-27T14:56:44.909Z,31.40
2019-06-27T14:59:14.894Z,31.40
2019-06-27T15:01:44.833Z,31.60
2019-06-27T15:04:14.761Z,31.60
2019-06-27T15:06:44.775Z,31.40
2019-06-27T15:09:14.673Z,31.10
2019-06-27T15:11:45.640Z,30.90
2019-06-27T15:14:15.637Z,31.20
2019-06-27T15:16:46.379Z,31.30
2019-06-27T15:19:16.280Z,31.30
2019-06-27T15:21:46.355Z,31.40
2019-06-27T15:24:16.565Z,31.50
2019-06-27T15:26:46.477Z,31.60
2019-06-27T15:29:16.407Z,31.40
2019-06-27T15:31:46.337Z,31.00
2019-06-27T15:34:16.395Z,30.90
2019-06-27T15:36:46.919Z,31.00
2019-06-27T15:39:16.901Z,30.90
2019-06-27T15:41:46.864Z,30.80
2019-06-27T15:44:20.488Z,30.80
2019-06-27T15:46:48.526Z,30.90
2019-06-27T15:49:18.437Z,31.00
2019-06-27T15:51:48.506Z,30.90
2019-06-27T15:54:18.422Z,30.80
2019-06-27T15:56:48.477Z,30.80
2019-06-27T15:59:18.454Z,30.90
2019-06-27T16:01:48.465Z,31.00
2019-06-27T16:04:28.999Z,31.00
2019-06-27T16:06:51.052Z,31.00
2019-06-27T16:09:21.034Z,30.80
2019-06-27T16:11:52.527Z,30.90
2019-06-27T16:14:22.452Z,30.90
2019-06-27T16:16:53.027Z,30.90
2019-06-27T16:19:23.874Z,30.90
2019-06-27T16:21:53.984Z,31.00
2019-06-27T16:24:24.054Z,31.20
2019-06-27T16:26:54.888Z,31.00
2019-06-27T16:29:24.965Z,31.20
2019-06-27T16:31:55.107Z,31.30
2019-06-27T16:34:28.676Z,31.40
2019-06-27T16:36:57.079Z,31.50
2019-06-27T16:39:28.352Z,31.60
2019-06-27T16:41:58.487Z,31.30
2019-06-27T16:44:29.074Z,31.10
2019-06-27T16:46:59.113Z,31.40
2019-06-27T16:49:29.058Z,31.30
2019-06-27T16:51:59.215Z,30.90
2019-06-27T16:54:29.221Z,30.80
2019-06-27T16:56:59.275Z,30.70
2019-06-27T16:59:29.287Z,30.40
2019-06-27T17:01:59.442Z,30.60
2019-06-27T17:04:29.413Z,30.40
2019-06-27T17:06:59.345Z,30.40
2019-06-27T17:09:29.464Z,30.30
2019-06-27T17:11:59.538Z,30.30
2019-06-27T17:14:29.476Z,30.20
2019-06-27T17:16:59.539Z,30.10
2019-06-27T17:19:29.867Z,29.90
2019-06-27T17:21:59.781Z,29.80
2019-06-27T17:24:29.871Z,29.90
2019-06-27T17:26:59.865Z,29.80
2019-06-27T17:29:29.783Z,29.60
2019-06-27T17:31:59.932Z,29.60
2019-06-27T17:34:32.422Z,29.30
2019-06-27T17:37:02.327Z,29.40
2019-06-27T17:39:32.212Z,29.30
2019-06-27T17:42:02.120Z,29.20
2019-06-27T17:44:32.107Z,29.20
2019-06-27T17:47:02.013Z,29.10
2019-06-27T17:49:31.896Z,29.10
2019-06-27T17:52:02.053Z,29.10
2019-06-27T17:54:32.125Z,29.10
2019-06-27T17:57:02.133Z,29.00
2019-06-27T17:59:32.758Z,28.90
2019-06-27T18:02:02.764Z,28.80
2019-06-27T18:04:32.675Z,28.70
2019-06-27T18:07:13.636Z,28.70
2019-06-27T18:09:34.204Z,28.60
2019-06-27T18:12:05.323Z,28.60
2019-06-27T18:14:35.445Z,28.50
2019-06-27T18:17:05.441Z,28.50
2019-06-27T18:19:35.416Z,28.40
2019-06-27T18:22:05.420Z,28.30
2019-06-27T18:24:36.771Z,28.30
2019-06-27T18:27:06.777Z,28.20
2019-06-27T18:29:36.845Z,28.20
2019-06-27T18:32:06.750Z,28.10
2019-06-27T18:34:36.650Z,28.10
2019-06-27T18:37:06.651Z,28.10
2019-06-27T18:39:36.539Z,28.00
2019-06-27T18:42:06.497Z,28.00
2019-06-27T18:44:36.559Z,27.90
2019-06-27T18:47:06.699Z,27.80
2019-06-27T18:49:37.454Z,27.80
2019-06-27T18:52:07.580Z,27.70
2019-06-27T18:54:37.547Z,27.70
2019-06-27T18:57:07.548Z,27.70
2019-06-27T18:59:37.474Z,27.70
2019-06-27T19:02:07.827Z,27.60
2019-06-27T19:04:37.808Z,27.50
2019-06-27T19:07:07.802Z,27.40
2019-06-27T19:09:37.671Z,27.40
2019-06-27T19:12:07.576Z,27.40
2019-06-27T19:14:37.629Z,27.40
2019-06-27T19:17:07.652Z,27.30
2019-06-27T19:19:39.359Z,27.30
2019-06-27T19:22:28.211Z,27.30
2019-06-27T19:25:07.350Z,27.20
2019-06-27T19:27:37.257Z,27.20
2019-06-27T19:30:07.988Z,27.20
2019-06-27T19:32:37.889Z,27.10
2019-06-27T19:35:08.222Z,27.10
2019-06-27T19:37:38.199Z,27.10
2019-06-27T19:40:08.646Z,27.00
2019-06-27T19:42:38.542Z,26.90
2019-06-27T19:45:08.962Z,26.90
2019-06-27T19:47:39.009Z,26.90
2019-06-27T19:50:10.450Z,26.80
2019-06-27T19:52:40.357Z,26.80
2019-06-27T19:55:10.883Z,26.70
2019-06-27T19:57:40.945Z,26.60
2019-06-27T20:00:12.232Z,26.60
2019-06-27T20:02:42.229Z,26.60
2019-06-27T20:05:12.437Z,26.50
2019-06-27T20:07:43.146Z,26.50
2019-06-27T20:10:13.566Z,26.40
2019-06-27T20:12:43.616Z,26.30
2019-06-27T20:15:13.772Z,26.30
2019-06-27T20:17:43.754Z,26.30
2019-06-27T20:20:14.515Z,26.30
2019-06-27T20:22:44.519Z,26.20
2019-06-27T20:25:14.627Z,26.10
2019-06-27T20:27:44.721Z,25.90
2019-06-27T20:30:15.383Z,25.70
2019-06-27T20:32:45.450Z,25.70
2019-06-27T20:35:16.821Z,25.60
2019-06-27T20:37:47.062Z,25.60
2019-06-27T20:40:18.702Z,25.40
2019-06-27T20:42:48.758Z,25.40
2019-06-27T20:45:18.984Z,25.10
2019-06-27T20:47:50.592Z,25.20
2019-06-27T20:50:21.541Z,25.30
2019-06-27T20:52:51.661Z,25.10
2019-06-27T20:55:21.538Z,25.10
2019-06-27T20:57:51.440Z,25.10
2019-06-27T21:00:22.061Z,24.90
2019-06-27T21:02:51.973Z,24.90
2019-06-27T21:05:21.926Z,24.90
2019-06-27T21:07:51.828Z,24.70
2019-06-27T21:10:21.943Z,24.60
2019-06-27T21:12:51.914Z,24.50
2019-06-27T21:15:23.833Z,24.50
2019-06-27T21:17:53.944Z,24.40
2019-06-27T21:20:24.111Z,24.40
2019-06-27T21:22:55.013Z,24.40
2019-06-27T21:25:24.972Z,24.30
2019-06-27T21:27:55.031Z,24.20
2019-06-27T21:30:25.374Z,24.10
2019-06-27T21:32:55.419Z,24.10
2019-06-27T21:35:25.468Z,24.00
2019-06-27T21:37:56.225Z,24.00
2019-06-27T21:40:28.107Z,24.00
2019-06-27T21:42:58.069Z,24.00
2019-06-27T21:45:28.028Z,23.90
2019-06-27T21:47:57.978Z,23.80
2019-06-27T21:50:27.865Z,23.70
2019-06-27T21:52:57.834Z,23.80
2019-06-27T21:55:27.862Z,23.60
2019-06-27T21:57:59.957Z,23.70
2019-06-27T22:00:31.292Z,23.50
2019-06-27T22:03:01.575Z,23.40
2019-06-27T22:05:31.559Z,23.40
2019-06-27T22:08:01.620Z,23.50
2019-06-27T22:10:31.717Z,23.30
2019-06-27T22:13:01.674Z,23.20
2019-06-27T22:15:31.701Z,23.30
2019-06-27T22:18:01.898Z,23.30
2019-06-27T22:20:31.945Z,23.40
2019-06-27T22:23:02.007Z,23.30
2019-06-27T22:25:40.479Z,23.20
2019-06-27T22:28:03.756Z,23.00
2019-06-27T22:30:33.799Z,22.90
2019-06-27T22:33:03.961Z,22.40
2019-06-27T22:35:33.928Z,22.40
2019-06-27T22:38:24.663Z,22.00
2019-06-27T22:41:12.423Z,22.10
2019-06-27T22:43:59.900Z,22.20
2019-06-27T22:46:47.605Z,21.70
2019-06-27T22:49:17.536Z,21.70
2019-06-27T22:52:08.757Z,21.80
2019-06-27T22:54:40.695Z,21.90
2019-06-27T22:57:10.937Z,21.80
2019-06-27T22:59:40.845Z,21.90
2019-06-27T23:02:11.652Z,21.90
2019-06-27T23:04:41.670Z,21.80
2019-06-27T23:07:11.665Z,21.90
2019-06-27T23:09:55.965Z,21.80
2019-06-27T23:12:14.393Z,21.70
2019-06-27T23:14:44.388Z,21.60
2019-06-27T23:17:14.411Z,21.50
2019-06-27T23:19:44.439Z,21.60
2019-06-27T23:22:14.426Z,21.50
2019-06-27T23:24:44.497Z,21.70
2019-06-27T23:27:16.875Z,21.60
2019-06-27T23:29:46.857Z,21.10
2019-06-27T23:32:16.888Z,21.40
2019-06-27T23:34:48.245Z,21.20
2019-06-27T23:37:18.176Z,21.20
2019-06-27T23:39:48.163Z,21.10
2019-06-27T23:42:18.056Z,21.00
2019-06-27T23:44:47.966Z,21.00
2019-06-27T23:47:17.947Z,21.00
2019-06-27T23:49:47.865Z,20.80
2019-06-27T23:52:18.653Z,20.90
2019-06-27T23:54:48.581Z,20.80
2019-06-27T23:57:18.491Z,20.80
2019-06-27T23:59:49.269Z,20.90
